Time;durP1;ratioP1;P1;durP2;ratioP2;P2;SDS_P1;SDS_P2;PMS_P1;PMS_P2;Temp;Humidity;BMP_temperature;BMP_pressure;BME280_temperature;BME280_humidity;BME280_pressure;Samples;Min_cycle;Max_cycle;Signal;HPM_P1;HPM_P2
2022/06/17 00:02:08;;;;;;;;;;;;;;;14.58;100.00;99087.34;4241790;33;19945;-70
2022/06/17 00:04:34;;;;;;;;;;;;;;;14.59;100.00;99095.19;4240526;33;19937;-71
2022/06/17 00:07:03;;;;;;;;;;;;;;;14.61;100.00;99097.66;4254468;33;19934;-71
2022/06/17 00:09:30;;;;;;;;;;;;;;;14.64;100.00;99091.69;4255623;33;19945;-70
2022/06/17 00:11:57;;;;;;;;;;;;;;;14.68;100.00;99093.59;4241160;33;20083;-70
2022/06/17 00:14:25;;;;;;;;;;;;;;;14.70;100.00;99096.03;4241254;33;19938;-70
2022/06/17 00:16:51;;;;;;;;;;;;;;;14.75;100.00;99093.28;4239783;33;19938;-71
2022/06/17 00:19:18;;;;;;;;;;;;;;;14.75;100.00;99103.31;4241448;33;19975;-70
2022/06/17 00:21:46;;;;;;;;;;;;;;;14.78;100.00;99111.72;4241232;33;19992;-71
2022/06/17 00:24:21;;;;;;;;;;;;;;;14.81;100.00;99094.91;4228532;33;20111;-70
2022/06/17 00:26:47;;;;;;;;;;;;;;;14.78;100.00;99103.59;4240664;33;20297;-71
2022/06/17 00:29:16;;;;;;;;;;;;;;;14.84;100.00;99107.91;4239579;33;19959;-70
2022/06/17 00:31:43;;;;;;;;;;;;;;;14.75;100.00;99104.13;4240784;33;19937;-70
2022/06/17 00:34:09;;;;;;;;;;;;;;;14.74;100.00;99112.53;4240284;33;19942;-71
2022/06/17 00:36:36;;;;;;;;;;;;;;;14.78;100.00;99103.59;4245255;33;19945;-70
2022/06/17 00:39:03;;;;;;;;;;;;;;;14.71;100.00;99094.94;4249138;33;20411;-72
2022/06/17 00:41:33;;;;;;;;;;;;;;;14.73;100.00;99109.03;4248760;33;19957;-71
2022/06/17 00:44:00;;;;;;;;;;;;;;;14.69;100.00;99105.22;4255134;33;19938;-71
2022/06/17 00:46:29;;;;;;;;;;;;;;;14.71;100.00;99103.06;4250019;33;19953;-71
2022/06/17 00:49:02;;;;;;;;;;;;;;;14.73;100.00;99111.72;4241053;33;19942;-70
2022/06/17 00:51:30;;;;;;;;;;;;;;;14.74;100.00;99102.50;4240031;33;19950;-70
2022/06/17 00:53:59;;;;;;;;;;;;;;;14.72;100.00;99115.53;4228201;33;19955;-70
2022/06/17 00:56:28;;;;;;;;;;;;;;;14.66;100.00;99100.34;4240533;33;19942;-70
2022/06/17 00:59:08;;;;;;;;;;;;;;;14.66;100.00;99106.59;4240665;33;19952;-70
2022/06/17 01:01:44;;;;;;;;;;;;;;;14.65;100.00;99115.00;4240373;33;19947;-70
2022/06/17 01:04:11;;;;;;;;;;;;;;;14.71;100.00;99114.72;4241976;33;19949;-70
2022/06/17 01:06:42;;;;;;;;;;;;;;;14.71;100.00;99116.63;4241195;33;20291;-70
2022/06/17 01:12:08;;;;;;;;;;;;;;;14.68;100.00;99114.47;4246460;33;19951;-70
2022/06/17 01:14:35;;;;;;;;;;;;;;;14.70;100.00;99123.13;4243413;33;19941;-71
2022/06/17 01:17:02;;;;;;;;;;;;;;;14.67;100.00;99135.31;4244326;33;19937;-70
2022/06/17 01:19:28;;;;;;;;;;;;;;;14.65;100.00;99139.41;4242644;33;19957;-69
2022/06/17 01:22:02;;;;;;;;;;;;;;;14.62;100.00;99138.03;4239176;33;19956;-70
2022/06/17 01:24:29;;;;;;;;;;;;;;;14.58;100.00;99146.94;4227723;33;19951;-70
2022/06/17 01:26:55;;;;;;;;;;;;;;;14.53;100.00;99140.47;4238892;33;20312;-71
2022/06/17 01:29:21;;;;;;;;;;;;;;;14.49;100.00;99139.37;4239582;33;19950;-70
2022/06/17 01:31:51;;;;;;;;;;;;;;;14.51;100.00;99137.19;4243467;33;19938;-69
2022/06/17 01:34:19;;;;;;;;;;;;;;;14.51;100.00;99137.19;4254631;33;19934;-69
2022/06/17 01:36:47;;;;;;;;;;;;;;;14.54;100.00;99125.81;4245890;33;19952;-71
2022/06/17 01:39:14;;;;;;;;;;;;;;;14.60;100.00;99133.97;4239449;33;20331;-70
2022/06/17 01:41:43;;;;;;;;;;;;;;;14.56;100.00;99141.00;4251281;33;19941;-70
2022/06/17 01:44:12;;;;;;;;;;;;;;;14.54;100.00;99147.50;4253875;33;19945;-70
2022/06/17 01:46:40;;;;;;;;;;;;;;;14.54;100.00;99152.91;4254385;33;19938;-70
2022/06/17 01:49:08;;;;;;;;;;;;;;;14.51;100.00;99148.03;4252546;33;19937;-69
2022/06/17 01:51:36;;;;;;;;;;;;;;;14.54;100.00;99155.63;4254391;33;20350;-69
2022/06/17 01:54:05;;;;;;;;;;;;;;;14.52;100.00;99159.72;4237540;33;20028;-70
2022/06/17 01:56:40;;;;;;;;;;;;;;;14.43;100.00;99151.31;4239483;33;19946;-71
2022/06/17 01:59:10;;;;;;;;;;;;;;;14.40;100.00;99151.84;4248029;33;20094;-69
2022/06/17 02:01:37;;;;;;;;;;;;;;;14.39;100.00;99150.25;4254317;33;19941;-69
2022/06/17 02:04:09;;;;;;;;;;;;;;;14.28;100.00;99156.72;4254171;33;19941;-69
2022/06/17 02:06:54;;;;;;;;;;;;;;;14.25;100.00;99154.53;4252098;33;19951;-71
2022/06/17 02:09:21;;;;;;;;;;;;;;;14.21;100.00;99158.91;4241394;33;19953;-69
2022/06/17 02:11:48;;;;;;;;;;;;;;;14.14;100.00;99164.59;4254117;33;19945;-70
2022/06/17 02:14:15;;;;;;;;;;;;;;;14.13;100.00;99169.16;4251760;33;19937;-69
2022/06/17 02:16:47;;;;;;;;;;;;;;;14.08;100.00;99177.28;4251288;33;20010;-68
2022/06/17 02:19:15;;;;;;;;;;;;;;;14.09;100.00;99181.62;4246589;33;19948;-71
2022/06/17 02:21:50;;;;;;;;;;;;;;;14.07;100.00;99175.69;4239294;33;19941;-71
2022/06/17 02:24:18;;;;;;;;;;;;;;;14.06;100.00;99181.38;4236579;33;19994;-70
2022/06/17 02:26:44;;;;;;;;;;;;;;;14.04;100.00;99187.03;4239854;33;20734;-69
2022/06/17 02:29:12;;;;;;;;;;;;;;;14.00;100.00;99185.94;4238025;33;20317;-71
2022/06/17 02:31:42;;;;;;;;;;;;;;;13.98;100.00;99180.00;4238754;33;19942;-71
2022/06/17 02:34:10;;;;;;;;;;;;;;;14.02;100.00;99188.38;4224685;33;19952;-72
2022/06/17 02:36:47;;;;;;;;;;;;;;;13.96;100.00;99196.50;4239780;33;19963;-69
2022/06/17 02:39:15;;;;;;;;;;;;;;;13.99;100.00;99205.97;4240032;33;19945;-71
2022/06/17 02:41:45;;;;;;;;;;;;;;;13.94;100.00;99208.66;4239525;33;19995;-70
2022/06/17 02:44:19;;;;;;;;;;;;;;;13.96;100.00;99201.91;4238033;33;19938;-70
2022/06/17 02:46:46;;;;;;;;;;;;;;;13.93;100.00;99212.47;4247456;33;19949;-70
2022/06/17 02:49:16;;;;;;;;;;;;;;;13.92;100.00;99210.84;4253082;33;20006;-70
2022/06/17 02:51:44;;;;;;;;;;;;;;;13.84;100.00;99208.66;4253164;33;20014;-70
2022/06/17 02:54:15;;;;;;;;;;;;;;;13.76;100.00;99218.91;4238030;33;19960;-70
2022/06/17 02:56:43;;;;;;;;;;;;;;;13.75;100.00;99214.59;4241548;33;19971;-69
2022/06/17 02:59:20;;;;;;;;;;;;;;;13.73;100.00;99214.03;4242190;33;19960;-70
2022/06/17 03:01:48;;;;;;;;;;;;;;;13.71;100.00;99220.78;4250345;33;19959;-70
2022/06/17 03:04:18;;;;;;;;;;;;;;;13.72;100.00;99223.25;4256463;33;19950;-70
2022/06/17 03:06:48;;;;;;;;;;;;;;;13.67;100.00;99223.19;4256673;33;19942;-70
2022/06/17 03:09:17;;;;;;;;;;;;;;;13.65;100.00;99222.66;4237989;33;20086;-69
2022/06/17 03:11:45;;;;;;;;;;;;;;;13.60;100.00;99219.94;4242784;33;19953;-69
2022/06/17 03:14:12;;;;;;;;;;;;;;;13.65;100.00;99222.66;4250092;33;19957;-70
2022/06/17 03:16:41;;;;;;;;;;;;;;;13.70;100.00;99225.38;4256756;33;19948;-70
2022/06/17 03:19:07;;;;;;;;;;;;;;;13.76;100.00;99235.16;4256383;33;19937;-70
2022/06/17 03:21:33;;;;;;;;;;;;;;;13.78;100.00;99226.75;4243627;33;19942;-70
2022/06/17 03:24:00;;;;;;;;;;;;;;;13.76;100.00;99227.03;4242143;33;19953;-69
2022/06/17 03:26:29;;;;;;;;;;;;;;;13.78;100.00;99232.97;4250461;33;19941;-70
2022/06/17 03:28:56;;;;;;;;;;;;;;;13.85;100.00;99237.31;4255825;33;19941;-70
2022/06/17 03:31:43;;;;;;;;;;;;;;;13.84;100.00;99238.44;4255800;33;20418;-72
2022/06/17 03:34:31;;;;;;;;;;;;;;;13.87;100.00;99235.19;4237368;33;19944;-70
2022/06/17 03:37:05;;;;;;;;;;;;;;;13.80;100.00;99247.06;4238836;33;20226;-70
2022/06/17 03:39:41;;;;;;;;;;;;;;;13.77;100.00;99252.22;4229935;33;19953;-69
2022/06/17 03:42:14;;;;;;;;;;;;;;;13.85;100.00;99245.44;4241556;33;19942;-69
2022/06/17 03:44:48;;;;;;;;;;;;;;;13.71;100.00;99251.38;4241514;33;19979;-70
2022/06/17 03:47:35;;;;;;;;;;;;;;;13.70;100.00;99252.44;4227533;33;19938;-70
2022/06/17 03:50:05;;;;;;;;;;;;;;;13.69;100.00;99250.81;4232570;33;19938;-70
2022/06/17 03:52:45;;;;;;;;;;;;;;;13.74;100.00;99253.53;4241543;33;19934;-71
2022/06/17 03:55:15;;;;;;;;;;;;;;;13.75;100.00;99252.47;4241658;33;19946;-70
2022/06/17 03:57:43;;;;;;;;;;;;;;;13.72;100.00;99250.31;4241175;33;19955;-70
2022/06/17 04:00:16;;;;;;;;;;;;;;;13.75;100.00;99260.59;4243135;33;20048;-70
2022/06/17 04:02:48;;;;;;;;;;;;;;;13.69;100.00;99258.94;4241745;33;19960;-71
2022/06/17 04:05:15;;;;;;;;;;;;;;;13.67;100.00;99263.78;4241657;33;20301;-71
2022/06/17 04:07:42;;;;;;;;;;;;;;;13.74;100.00;99269.78;4240882;33;19942;-70
2022/06/17 04:10:17;;;;;;;;;;;;;;;13.87;100.00;99267.66;4228152;33;19997;-71
2022/06/17 04:12:48;;;;;;;;;;;;;;;13.71;100.00;99270.31;4240804;33;20009;-70
2022/06/17 04:15:18;;;;;;;;;;;;;;;13.84;100.00;99268.19;4240872;33;19959;-70
2022/06/17 04:17:46;;;;;;;;;;;;;;;13.91;100.00;99268.75;4242065;33;19951;-69
2022/06/17 04:20:15;;;;;;;;;;;;;;;13.89;100.00;99270.91;4241866;33;20373;-69
2022/06/17 04:22:44;;;;;;;;;;;;;;;13.94;100.00;99268.22;4241185;33;19948;-70
2022/06/17 04:25:14;;;;;;;;;;;;;;;14.04;100.00;99273.69;4245622;33;19959;-69
2022/06/17 04:27:56;;;;;;;;;;;;;;;14.13;100.00;99272.06;4251053;33;19951;-69
2022/06/17 04:30:30;;;;;;;;;;;;;;;14.19;100.00;99285.63;4241051;33;20361;-69
2022/06/17 04:33:02;;;;;;;;;;;;;;;14.19;100.00;99280.22;4240197;33;19942;-69
2022/06/17 04:35:29;;;;;;;;;;;;;;;14.16;100.00;99271.53;4244154;33;19937;-70
2022/06/17 04:37:56;;;;;;;;;;;;;;;14.21;100.00;99267.22;4239843;33;20068;-69
2022/06/17 04:40:38;;;;;;;;;;;;;;;14.21;100.00;99283.47;4254217;33;19951;-68
2022/06/17 04:43:07;;;;;;;;;;;;;;;14.33;100.00;99281.31;4255009;33;19938;-69
2022/06/17 04:45:34;;;;;;;;;;;;;;;14.31;100.00;99284.31;4253792;33;19947;-70
2022/06/17 04:48:01;;;;;;;;;;;;;;;14.28;100.00;99289.41;4240533;33;20750;-69
2022/06/17 04:50:30;;;;;;;;;;;;;;;14.38;100.00;99294.88;4244556;33;19941;-69
2022/06/17 04:52:57;;;;;;;;;;;;;;;14.47;100.00;99298.69;4253736;33;19941;-70
2022/06/17 04:55:35;;;;;;;;;;;;;;;14.40;100.00;99298.13;4243768;33;20283;-72
2022/06/17 04:58:03;;;;;;;;;;;;;;;14.53;100.00;99303.03;4239792;33;19958;-70
2022/06/17 05:00:30;;;;;;;;;;;;;;;14.65;100.00;99310.13;4240616;33;19971;-69
2022/06/17 05:02:57;;;;;;;;;;;;;;;14.66;100.00;99300.87;4239539;33;20355;-69
2022/06/17 05:05:34;;;;;;;;;;;;;;;14.60;100.00;99301.97;4227958;33;19933;-72
2022/06/17 05:08:03;;;;;;;;;;;;;;;14.62;100.00;99305.25;4228009;33;19996;-70
2022/06/17 05:10:35;;;;;;;;;;;;;;;14.75;100.00;99310.13;4240726;33;19980;-69
2022/06/17 05:13:04;;;;;;;;;;;;;;;14.88;100.00;99315.00;4243780;33;19955;-70
2022/06/17 05:15:31;;;;;;;;;;;;;;;14.97;100.00;99322.59;4248879;33;19941;-70
2022/06/17 05:17:58;;;;;;;;;;;;;;;14.85;100.00;99320.97;4253460;33;19953;-71
2022/06/17 05:20:24;;;;;;;;;;;;;;;14.94;100.00;99318.53;4250003;33;20324;-71
2022/06/17 05:22:53;;;;;;;;;;;;;;;15.14;100.00;99328.56;4239475;33;19981;-70
2022/06/17 05:25:23;;;;;;;;;;;;;;;15.22;100.00;99328.00;4252499;33;19973;-71
2022/06/17 05:27:50;;;;;;;;;;;;;;;15.29;100.00;99332.34;4251646;33;19963;-71
2022/06/17 05:30:17;;;;;;;;;;;;;;;15.33;100.00;99336.13;4253901;33;19959;-70
2022/06/17 05:32:47;;;;;;;;;;;;;;;15.30;100.00;99337.50;4253633;33;19967;-70
2022/06/17 05:35:13;;;;;;;;;;;;;;;15.44;100.00;99335.84;4252263;33;20299;-71
2022/06/17 05:37:41;;;;;;;;;;;;;;;15.49;100.00;99345.84;4253058;33;19960;-69
2022/06/17 05:40:08;;;;;;;;;;;;;;;15.41;100.00;99346.41;4250709;33;19975;-70
2022/06/17 05:42:35;;;;;;;;;;;;;;;15.59;100.00;99350.47;4240106;33;20236;-70
2022/06/17 05:45:03;;;;;;;;;;;;;;;15.72;100.00;99339.03;4251901;33;20303;-70
2022/06/17 05:47:30;;;;;;;;;;;;;;;15.81;100.00;99347.44;4250967;33;20303;-70
2022/06/17 05:49:56;;;;;;;;;;;;;;;15.75;100.00;99345.81;4251574;33;20741;-69
2022/06/17 05:52:23;;;;;;;;;;;;;;;15.82;100.00;99349.06;4252969;33;19945;-69
2022/06/17 05:54:50;;;;;;;;;;;;;;;15.75;100.00;99348.53;4249576;33;19945;-70
2022/06/17 05:57:16;;;;;;;;;;;;;;;15.76;100.00;99353.72;4249228;33;19941;-71
2022/06/17 05:59:43;;;;;;;;;;;;;;;15.79;100.00;99349.62;4248163;33;20253;-71
2022/06/17 06:02:11;;;;;;;;;;;;;;;15.78;100.00;99348.81;4235155;33;19949;-71
2022/06/17 06:04:39;;;;;;;;;;;;;;;15.92;100.00;99350.94;4252288;33;19993;-71
2022/06/17 06:07:06;;;;;;;;;;;;;;;15.96;100.00;99350.09;4238222;33;20016;-70
2022/06/17 06:09:32;;;;;;;;;;;;;;;15.98;100.00;99342.47;4251409;33;20020;-73
2022/06/17 06:11:58;;;;;;;;;;;;;;;16.03;100.00;99344.38;4252730;33;20755;-71
2022/06/17 06:14:25;;;;;;;;;;;;;;;16.03;100.00;99352.50;4250143;33;20293;-70
2022/06/17 06:16:51;;;;;;;;;;;;;;;16.03;100.00;99338.13;4252599;33;19941;-70
2022/06/17 06:19:18;;;;;;;;;;;;;;;16.11;100.00;99351.13;4239761;33;19960;-71
2022/06/17 06:21:44;;;;;;;;;;;;;;;16.15;100.00;99338.63;4251725;33;19937;-72
2022/06/17 06:24:11;;;;;;;;;;;;;;;16.06;100.00;99340.28;4242612;33;20415;-70
2022/06/17 06:26:40;;;;;;;;;;;;;;;16.10;100.00;99349.53;4248253;33;19937;-69
2022/06/17 06:29:07;;;;;;;;;;;;;;;16.19;100.00;99347.81;4246486;33;19934;-69
2022/06/17 06:31:34;;;;;;;;;;;;;;;16.22;100.00;99347.28;4233602;33;19981;-71
2022/06/17 06:34:02;;;;;;;;;;;;;;;16.20;100.00;99349.47;4228896;33;19945;-70
2022/06/17 06:36:29;;;;;;;;;;;;;;;16.13;100.00;99351.66;4249012;33;19951;-69
2022/06/17 06:38:57;;;;;;;;;;;;;;;16.18;100.00;99346.22;4244660;33;20298;-70
2022/06/17 06:41:26;;;;;;;;;;;;;;;16.14;100.00;99347.84;4247073;33;19941;-71
2022/06/17 06:43:52;;;;;;;;;;;;;;;16.19;100.00;99342.41;4240406;33;19956;-69
2022/06/17 06:46:20;;;;;;;;;;;;;;;16.28;100.00;99350.78;4242306;33;20287;-70
2022/06/17 06:48:47;;;;;;;;;;;;;;;16.26;100.00;99353.78;4255304;33;19938;-70
2022/06/17 06:51:14;;;;;;;;;;;;;;;16.36;100.00;99347.47;4239132;33;19938;-70
2022/06/17 06:53:40;;;;;;;;;;;;;;;16.48;100.00;99355.28;4251308;33;19941;-72
2022/06/17 06:56:06;;;;;;;;;;;;;;;16.54;100.00;99356.88;4228699;33;20799;-69
2022/06/17 06:58:36;;;;;;;;;;;;;;;16.30;100.00;99360.25;4239655;33;19957;-70
2022/06/17 07:01:03;;;;;;;;;;;;;;;16.36;100.00;99362.97;4226378;33;20008;-69
2022/06/17 07:03:30;;;;;;;;;;;;;;;16.49;100.00;99351.47;4226779;33;19960;-71
2022/06/17 07:05:59;;;;;;;;;;;;;;;16.57;100.00;99347.38;4238598;33;19953;-68
2022/06/17 07:08:26;;;;;;;;;;;;;;;16.52;100.00;99350.94;4253432;33;19937;-69
2022/06/17 07:10:54;;;;;;;;;;;;;;;16.66;100.00;99357.34;4240618;33;20011;-69
2022/06/17 07:13:22;;;;;;;;;;;;;;;16.62;100.00;99359.00;4252815;33;20353;-69
2022/06/17 07:15:55;;;;;;;;;;;;;;;16.67;100.00;99348.13;4251200;33;19963;-68
2022/06/17 07:18:29;;;;;;;;;;;;;;;16.60;100.00;99353.03;4245686;33;19992;-67
2022/06/17 07:20:56;;;;;;;;;;;;;;;16.63;100.00;99354.41;4244657;33;19956;-68
2022/06/17 07:23:25;;;;;;;;;;;;;;;16.83;100.00;99356.16;4245923;33;19957;-68
2022/06/17 07:25:51;;;;;;;;;;;;;;;16.81;100.00;99361.88;4238707;33;19983;-69
2022/06/17 07:28:19;;;;;;;;;;;;;;;16.81;100.00;99358.34;4227596;33;19981;-69
2022/06/17 07:30:47;;;;;;;;;;;;;;;16.83;100.00;99356.16;4241908;33;19953;-69
2022/06/17 07:33:18;;;;;;;;;;;;;;;16.81;100.00;99358.34;4228349;33;19933;-69
2022/06/17 07:35:45;;;;;;;;;;;;;;;16.98;100.00;99342.47;4239762;33;19956;-69
2022/06/17 07:40:58;;;;;;;;;;;;;;;16.91;100.00;99354.78;4241184;33;19999;-67
2022/06/17 07:43:25;;;;;;;;;;;;;;;17.03;100.00;99350.59;4238098;33;20321;-70
2022/06/17 07:45:51;;;;;;;;;;;;;;;16.98;100.00;99353.34;4240893;33;20195;-68
2022/06/17 07:48:23;;;;;;;;;;;;;;;16.86;100.00;99366.50;4240493;33;20331;-68
2022/06/17 07:50:49;;;;;;;;;;;;;;;16.98;100.00;99358.78;4241602;33;19942;-68
2022/06/17 07:53:16;;;;;;;;;;;;;;;17.08;100.00;99373.41;4235785;33;19971;-70
2022/06/17 07:55:43;;;;;;;;;;;;;;;17.11;100.00;99370.13;4228612;33;19976;-68
2022/06/17 07:58:11;;;;;;;;;;;;;;;17.14;100.00;99377.72;4227961;33;19952;-68
2022/06/17 08:00:38;;;;;;;;;;;;;;;17.10;100.00;99365.78;4240885;33;19972;-68
2022/06/17 08:03:05;;;;;;;;;;;;;;;17.18;100.00;99362.44;4227490;33;19960;-68
2022/06/17 08:05:31;;;;;;;;;;;;;;;17.31;100.00;99367.25;4239811;33;19960;-69
2022/06/17 08:07:58;;;;;;;;;;;;;;;17.39;100.00;99369.34;4241426;33;19957;-70
2022/06/17 08:10:27;;;;;;;;;;;;;;;17.56;100.00;99368.09;4244409;33;19937;-68
2022/06/17 08:12:53;;;;;;;;;;;;;;;17.61;100.00;99365.28;4246641;33;20020;-71
2022/06/17 08:15:20;;;;;;;;;;;;;;;17.62;100.00;99364.22;4248671;33;20002;-70
2022/06/17 08:17:47;;;;;;;;;;;;;;;17.62;100.00;99372.38;4247988;33;19955;-70
2022/06/17 08:20:24;;;;;;;;;;;;;;;17.68;100.00;99359.50;4249953;33;19963;-69
2022/06/17 08:22:51;;;;;;;;;;;;;;;17.62;100.00;99361.50;4249874;33;19959;-69
2022/06/17 08:25:17;;;;;;;;;;;;;;;17.62;100.00;99366.94;4255559;33;20011;-69
2022/06/17 08:27:48;;;;;;;;;;;;;;;17.69;100.00;99378.28;4242814;33;19985;-69
2022/06/17 08:30:15;;;;;;;;;;;;;;;17.70;100.00;99388.09;4248764;33;19945;-69
2022/06/17 08:32:45;;;;;;;;;;;;;;;17.82;100.00;99375.97;4247885;33;19979;-69
2022/06/17 08:35:19;;;;;;;;;;;;;;;17.81;100.00;99385.25;4244020;33;19949;-69
2022/06/17 08:37:46;;;;;;;;;;;;;;;18.07;100.00;99383.87;4245521;33;20297;-69
2022/06/17 08:40:32;;;;;;;;;;;;;;;18.10;100.00;99387.97;4244312;33;19957;-69
2022/06/17 08:43:08;;;;;;;;;;;;;;;18.26;100.00;99385.84;4236304;33;20332;-72
2022/06/17 08:45:53;;;;;;;;;;;;;;;18.42;100.00;99390.00;4242886;33;20862;-70
2022/06/17 08:48:43;;;;;;;;;;;;;;;18.52;100.00;99398.06;4242862;33;19967;-73
2022/06/17 08:51:18;;;;;;;;;;;;;;;18.38;100.00;99397.16;4234622;33;19960;-73
2022/06/17 08:54:11;;;;;;;;;;;;;;;18.36;100.00;99407.50;4242714;33;20360;-73
2022/06/17 08:56:37;;;;;;;;;;;;;;;18.53;100.00;99401.59;4239758;33;19938;-73
2022/06/17 08:59:15;;;;;;;;;;;;;;;18.54;100.00;99407.84;4235756;33;19960;-73
2022/06/17 09:01:51;;;;;;;;;;;;;;;18.57;100.00;99407.25;4247602;33;20291;-73
2022/06/17 09:04:27;;;;;;;;;;;;;;;18.65;100.00;99409.31;4235104;33;19951;-74
2022/06/17 09:07:05;;;;;;;;;;;;;;;18.90;100.00;99410.09;4244387;33;19955;-72
2022/06/17 09:09:32;;;;;;;;;;;;;;;18.90;100.00;99404.66;4247014;33;19952;-72
2022/06/17 09:12:02;;;;;;;;;;;;;;;18.83;100.00;99400.34;4246102;33;20385;-73
2022/06/17 09:14:45;;;;;;;;;;;;;;;18.83;100.00;99391.34;4246714;33;19938;-73
2022/06/17 09:17:26;;;;;;;;;;;;;;;19.09;100.00;99405.44;4243987;33;19937;-73
2022/06/17 09:19:56;;;;;;;;;;;;;;;18.82;100.00;99409.62;4242038;33;20014;-72
2022/06/17 09:22:27;;;;;;;;;;;;;;;18.95;100.00;99424.47;4246663;33;19955;-73
2022/06/17 09:24:55;;;;;;;;;;;;;;;18.99;100.00;99416.53;4238337;33;19944;-72
2022/06/17 09:27:23;;;;;;;;;;;;;;;18.93;100.00;99421.22;4237013;33;19937;-74
2022/06/17 09:29:50;;;;;;;;;;;;;;;18.91;100.00;99436.25;4230370;33;19953;-74
2022/06/17 09:32:26;;;;;;;;;;;;;;;18.87;100.00;99423.25;4223656;33;19941;-73
2022/06/17 09:35:04;;;;;;;;;;;;;;;18.90;100.00;99415.56;4242968;33;19994;-71
2022/06/17 09:37:30;;;;;;;;;;;;;;;18.96;100.00;99422.56;4242506;33;19937;-71
2022/06/17 09:39:59;;;;;;;;;;;;;;;19.03;100.00;99426.56;4245608;33;19971;-70
2022/06/17 09:42:34;;;;;;;;;;;;;;;19.15;100.00;99417.91;4231206;33;19934;-71
2022/06/17 09:45:01;;;;;;;;;;;;;;;19.25;100.00;99433.28;4239514;33;19946;-71
2022/06/17 09:47:35;;;;;;;;;;;;;;;19.23;100.00;99422.69;4239552;33;20053;-71
2022/06/17 09:50:07;;;;;;;;;;;;;;;19.31;100.00;99432.09;4246261;33;19982;-71
2022/06/17 09:52:39;;;;;;;;;;;;;;;19.36;100.00;99433.94;4240548;33;20302;-71
2022/06/17 09:55:11;;;;;;;;;;;;;;;19.33;100.00;99434.53;4231660;33;20362;-70
2022/06/17 09:57:37;;;;;;;;;;;;;;;19.30;100.00;99429.69;4243226;33;19953;-71
2022/06/17 10:00:11;;;;;;;;;;;;;;;19.19;100.00;99438.03;4243001;33;19945;-71
2022/06/17 10:02:49;;;;;;;;;;;;;;;19.44;100.00;99436.00;4232946;33;19949;-71
2022/06/17 10:05:31;;;;;;;;;;;;;;;19.58;100.00;99425.91;4237930;33;19949;-71
2022/06/17 10:08:06;;;;;;;;;;;;;;;19.92;100.00;99429.44;4241642;33;19946;-71
2022/06/17 10:10:32;;;;;;;;;;;;;;;19.83;100.00;99437.50;4244611;33;20077;-73
2022/06/17 10:13:12;;;;;;;;;;;;;;;19.58;100.00;99425.91;4228963;33;19960;-71
2022/06/17 10:19:05;;;;;;;;;;;;;;;19.32;100.00;99432.91;4239013;33;19953;-70
2022/06/17 10:21:52;;;;;;;;;;;;;;;19.39;100.00;99419.69;4228013;33;20064;-72
2022/06/17 10:24:18;;;;;;;;;;;;;;;19.64;100.00;99417.62;4241163;33;19991;-70
2022/06/17 10:26:53;;;;;;;;;;;;;;;19.85;100.00;99416.19;4246382;33;19942;-72
2022/06/17 10:29:39;;;;;;;;;;;;;;;19.84;100.00;99417.28;4243554;33;19945;-72
2022/06/17 10:32:06;;;;;;;;;;;;;;;19.80;100.00;99432.69;4245516;33;19993;-71
2022/06/17 10:34:37;;;;;;;;;;;;;;;19.79;100.00;99447.44;4237367;33;19945;-70
2022/06/17 10:37:04;;;;;;;;;;;;;;;19.99;100.00;99431.78;4246767;33;20281;-72
2022/06/17 10:39:32;;;;;;;;;;;;;;;20.09;100.00;99435.13;4243214;33;20693;-71
2022/06/17 10:41:59;;;;;;;;;;;;;;;20.11;100.00;99432.09;4244199;33;20351;-71
2022/06/17 10:46:21;;;;;;;;;;;;;;;20.36;100.00;99449.09;4382327;32;47002;-71
2022/06/17 10:48:48;;;;;;;;;;;;;;;20.36;100.00;99449.09;4343828;32;328061;-70
2022/06/17 10:51:14;;;;;;;;;;;;;;;19.68;100.00;99438.59;4385607;32;19983;-70
2022/06/17 10:53:44;;;;;;;;;;;;;;;19.50;100.00;99432.06;4379224;32;19957;-72
2022/06/17 10:56:16;;;;;;;;;;;;;;;19.49;100.00;99437.84;4383570;32;20292;-71
2022/06/17 10:58:54;;;;;;;;;;;;;;;19.51;100.00;99446.53;4381961;32;20364;-71
2022/06/17 11:01:21;;;;;;;;;;;;;;;19.60;100.00;99434.63;4370341;32;19952;-72
2022/06/17 11:03:50;;;;;;;;;;;;;;;20.35;100.00;99431.09;4384929;32;19973;-71
2022/06/17 11:06:18;;;;;;;;;;;;;;;20.88;100.00;99427.75;4368792;32;19939;-70
2022/06/17 11:09:01;;;;;;;;;;;;;;;21.55;100.00;99423.44;4390225;32;19947;-70
2022/06/17 11:14:43;;;;;;;;;;;;;;;20.68;100.00;99424.38;4394342;32;19954;-71
2022/06/17 11:17:20;;;;;;;;;;;;;;;20.52;100.00;99436.75;4381636;32;19974;-70
2022/06/17 11:19:48;;;;;;;;;;;;;;;20.46;100.00;99440.69;4379520;32;20104;-69
2022/06/17 11:22:35;;;;;;;;;;;;;;;20.81;100.00;99430.13;4380500;32;20013;-70
2022/06/17 11:25:08;;;;;;;;;;;;;;;21.50;100.00;99442.75;4383250;32;19976;-69
2022/06/17 11:27:38;;;;;;;;;;;;;;;22.12;100.00;99434.53;4382454;32;19950;-69
2022/06/17 11:30:25;;;;;;;;;;;;;;;21.96;100.00;99425.12;4384767;32;19960;-69
2022/06/17 11:32:53;;;;;;;;;;;;;;;21.77;100.00;99426.16;4372404;32;19956;-69
2022/06/17 11:35:20;;;;;;;;;;;;;;;21.41;100.00;99440.75;4380108;32;20070;-69
2022/06/17 11:37:47;;;;;;;;;;;;;;;21.38;100.00;99435.91;4378690;32;19963;-69
2022/06/17 11:40:15;;;;;;;;;;;;;;;21.41;100.00;99435.28;4378633;32;19959;-70
2022/06/17 11:42:45;;;;;;;;;;;;;;;21.74;100.00;99426.78;4381613;32;19984;-69
2022/06/17 11:45:14;;;;;;;;;;;;;;;21.93;100.00;99431.22;4380156;32;20004;-69
2022/06/17 11:47:43;;;;;;;;;;;;;;;22.60;100.00;99429.37;4380643;32;20595;-69
2022/06/17 11:50:13;;;;;;;;;;;;;;;22.89;100.00;99433.44;4379488;32;20010;-71
2022/06/17 11:52:39;;;;;;;;;;;;;;;22.74;99.31;99440.22;4380614;32;19947;-69
2022/06/17 11:55:06;;;;;;;;;;;;;;;22.07;100.00;99434.69;4382030;32;19963;-68
2022/06/17 11:57:36;;;;;;;;;;;;;;;22.20;100.00;99432.94;4357091;32;20003;-70
2022/06/17 12:00:05;;;;;;;;;;;;;;;22.35;100.00;99436.41;4371435;32;19950;-69
2022/06/17 12:02:52;;;;;;;;;;;;;;;22.90;100.00;99432.31;4366306;32;19955;-69
2022/06/17 12:05:23;;;;;;;;;;;;;;;23.14;98.91;99438.16;4369225;32;19943;-70
2022/06/17 12:07:49;;;;;;;;;;;;;;;23.57;90.97;99437.28;4369367;32;19939;-69
2022/06/17 12:10:21;;;;;;;;;;;;;;;23.83;91.53;99430.94;4369149;32;19946;-70
2022/06/17 12:12:50;;;;;;;;;;;;;;;24.09;90.50;99438.28;4370163;32;19947;-69
2022/06/17 12:15:28;;;;;;;;;;;;;;;24.32;89.34;99435.25;4370107;32;20302;-70
2022/06/17 12:17:57;;;;;;;;;;;;;;;24.13;86.18;99433.75;4369658;32;19944;-72
2022/06/17 12:20:37;;;;;;;;;;;;;;;23.57;92.53;99429.06;4372817;32;19998;-70
2022/06/17 12:23:13;;;;;;;;;;;;;;;23.66;95.05;99439.22;4374565;32;20219;-70
2022/06/17 12:25:46;;;;;;;;;;;;;;;23.98;92.85;99437.03;4376898;32;20031;-71
2022/06/17 12:28:22;;;;;;;;;;;;;;;23.29;89.86;99434.09;4371667;32;19973;-70
2022/06/17 12:31:17;;;;;;;;;;;;;;;22.55;100.00;99444.06;4370976;32;20301;-69
2022/06/17 12:33:49;;;;;;;;;;;;;;;21.99;100.00;99449.16;4318608;32;19956;-69
2022/06/17 12:36:18;;;;;;;;;;;;;;;21.36;100.00;99438.16;4370021;32;19951;-68
2022/06/17 12:38:47;;;;;;;;;;;;;;;20.98;100.00;99441.22;4371478;32;19942;-70
2022/06/17 12:41:16;;;;;;;;;;;;;;;21.00;100.00;99449.94;4369831;32;19984;-69
2022/06/17 12:44:05;;;;;;;;;;;;;;;20.94;100.00;99447.63;4372843;32;19953;-70
2022/06/17 12:46:44;;;;;;;;;;;;;;;21.15;100.00;99437.00;4342080;32;19953;-71
2022/06/17 12:55:08;;;;;;;;;;;;;;;21.67;100.00;99431.13;4371312;32;19948;-69
2022/06/17 12:57:57;;;;;;;;;;;;;;;22.03;100.00;99422.72;4366558;32;19959;-71
2022/06/17 13:00:44;;;;;;;;;;;;;;;21.91;100.00;99436.22;4369892;32;19939;-69
2022/06/17 13:03:25;;;;;;;;;;;;;;;22.18;98.29;99434.38;4369778;32;20367;-69
2022/06/17 13:05:54;;;;;;;;;;;;;;;22.66;93.60;99433.59;4356423;32;19947;-68
2022/06/17 13:08:29;;;;;;;;;;;;;;;22.32;100.00;99435.09;4355870;32;20266;-69
2022/06/17 13:11:08;;;;;;;;;;;;;;;22.02;100.00;99429.34;4368103;32;20275;-70
2022/06/17 13:13:48;;;;;;;;;;;;;;;21.89;100.00;99432.97;4369772;32;19957;-67
2022/06/17 13:16:20;;;;;;;;;;;;;;;21.74;100.00;99425.97;4355409;32;20028;-69